FR-0239 weather

Refuge Du Requin Heliport
Chamonix, Auvergne-Rhône-Alpes, France

Public forecast

Using degrees Celsius for public forecast. Weather courtesy of forecast.io.

Closest aviation weather report (METAR) to Refuge Du Requin Heliport

Report is more than 2 hours old.

Closest report is Aosta Airport, 20.3 nm (37.7 km) ESE. Retrieved 2020/01/17 15:50 UTC (3 hours ago):

LIMW 171550Z AUTO VRB01KT 9999 BKN073 BKN095 03/M04 Q1023

Closest aviation forecast (TAF) to Refuge Du Requin Heliport

Closest forecast is Annecy-Haute-Savoie-Mont Blanc Airport, 34.5 nm (64.0 km) W. Retrieved 2020/01/17 15:00 UTC (4 hours ago):

TAF LFLP 171400Z 1715/1815 16004KT 9999 RA BKN030 TEMPO 1715/1718 4000 RA BKN015 TEMPO 1718/1802 SHRA SCT025TCU PROB30 TEMPO 1723/1802 3000 SHSNRA SCT012TCU PROB40 TEMPO 1803/1809 4000 BR